Time;durP1;ratioP1;P1;durP2;ratioP2;P2;SDS_P1;SDS_P2;PMS_P1;PMS_P2;Temp;Humidity;BMP_temperature;BMP_pressure;BME280_temperature;BME280_humidity;BME280_pressure;Samples;Min_cycle;Max_cycle;Signal;HPM_P1;HPM_P2
2022/11/08 00:02:00;;;;;;;10.60;2.10;;;13.60;99.90;;;;;;5046179;28;20048;-72
2022/11/08 00:04:29;;;;;;;9.52;1.88;;;13.60;99.90;;;;;;5042890;28;20080;-72
2022/11/08 00:15:08;;;;;;;9.93;3.15;;;13.60;99.90;;;;;;5044277;28;20118;-73
2022/11/08 00:17:34;;;;;;;10.45;2.67;;;13.50;99.90;;;;;;5046190;28;20087;-72
2022/11/08 00:19:59;;;;;;;5.75;2.35;;;13.50;99.90;;;;;;5044247;28;20025;-74
2022/11/08 00:22:28;;;;;;;11.07;2.88;;;13.50;99.90;;;;;;5047102;28;20108;-73
2022/11/08 00:24:56;;;;;;;4.97;2.47;;;13.50;99.90;;;;;;5044444;28;20078;-73
2022/11/08 00:27:23;;;;;;;11.07;2.90;;;13.60;99.90;;;;;;5044155;28;20576;-72
2022/11/08 00:29:51;;;;;;;11.30;2.97;;;13.50;99.90;;;;;;5043386;28;20089;-73
2022/11/08 00:32:24;;;;;;;7.85;2.10;;;13.60;99.90;;;;;;5048234;28;20126;-73
2022/11/08 00:34:51;;;;;;;10.60;2.90;;;13.50;99.90;;;;;;5042969;28;20040;-74
2022/11/08 00:37:17;;;;;;;9.15;1.88;;;13.50;99.90;;;;;;5038772;28;20052;-73
2022/11/08 00:39:43;;;;;;;11.57;2.15;;;13.50;99.90;;;;;;5040838;28;20477;-73
2022/11/08 00:42:11;;;;;;;8.23;2.70;;;13.60;99.90;;;;;;5046842;28;20065;-73
2022/11/08 00:44:37;;;;;;;8.88;2.35;;;13.50;99.90;;;;;;5053934;28;20036;-73
2022/11/08 00:47:05;;;;;;;4.90;1.63;;;13.50;99.90;;;;;;5040961;28;20037;-73
2022/11/08 00:49:34;;;;;;;8.27;2.10;;;13.50;99.90;;;;;;5059871;28;20036;-73
2022/11/08 00:51:59;;;;;;;10.25;2.83;;;13.50;99.90;;;;;;5044596;28;20029;-73
2022/11/08 00:54:25;;;;;;;6.65;1.98;;;13.50;99.90;;;;;;5042648;28;20032;-73
2022/11/08 00:56:53;;;;;;;7.63;2.47;;;13.50;99.90;;;;;;5049385;28;20036;-74
2022/11/08 00:59:21;;;;;;;7.20;2.28;;;13.60;99.90;;;;;;5046346;28;20106;-72
2022/11/08 01:01:47;;;;;;;8.90;2.10;;;13.70;99.90;;;;;;5043195;28;20090;-72
2022/11/08 01:04:18;;;;;;;15.85;2.13;;;13.70;99.90;;;;;;5039622;28;20371;-73
2022/11/08 01:06:46;;;;;;;5.63;1.75;;;13.70;99.90;;;;;;5040199;28;20129;-76
2022/11/08 01:09:12;;;;;;;4.05;1.90;;;13.70;99.90;;;;;;5039656;28;20025;-73
2022/11/08 01:11:39;;;;;;;7.03;1.88;;;13.70;99.90;;;;;;5041273;28;20083;-73
2022/11/08 01:14:04;;;;;;;13.50;2.55;;;13.70;99.90;;;;;;5040485;28;20037;-73
2022/11/08 01:16:35;;;;;;;7.22;1.70;;;13.80;99.90;;;;;;5050167;28;20396;-74
2022/11/08 01:19:01;;;;;;;5.93;1.60;;;13.80;99.90;;;;;;5038138;28;20098;-73
2022/11/08 01:21:27;;;;;;;12.52;1.90;;;13.80;99.90;;;;;;5041620;28;20026;-73
2022/11/08 01:23:53;;;;;;;9.05;2.17;;;13.90;99.90;;;;;;5042765;28;20083;-73
2022/11/08 01:26:24;;;;;;;14.98;2.20;;;13.90;99.90;;;;;;5044102;28;20052;-73
2022/11/08 01:28:50;;;;;;;10.35;1.60;;;13.90;99.90;;;;;;5040501;28;20033;-76
2022/11/08 01:31:21;;;;;;;9.80;1.90;;;14.00;99.90;;;;;;5043011;28;20024;-73
2022/11/08 01:33:48;;;;;;;8.13;1.80;;;14.00;99.90;;;;;;5046117;28;20057;-74
2022/11/08 01:36:16;;;;;;;8.50;1.90;;;14.10;99.90;;;;;;5044194;28;20025;-74
2022/11/08 01:38:42;;;;;;;7.90;1.83;;;14.10;99.90;;;;;;5041709;28;20113;-73
2022/11/08 01:41:12;;;;;;;8.07;1.92;;;14.10;99.90;;;;;;5041690;28;20112;-73
2022/11/08 01:43:40;;;;;;;7.47;1.83;;;14.10;99.90;;;;;;5045532;28;20037;-73
2022/11/08 01:46:20;;;;;;;6.20;1.40;;;14.10;99.90;;;;;;5039371;28;20629;-73
2022/11/08 01:49:20;;;;;;;7.20;1.98;;;14.10;99.90;;;;;;5038807;28;20032;-73
2022/11/08 01:52:09;;;;;;;6.82;1.88;;;14.00;99.90;;;;;;5042753;28;20730;-74
2022/11/08 01:54:43;;;;;;;9.68;1.70;;;14.00;99.90;;;;;;5040273;28;20112;-73
2022/11/08 01:57:15;;;;;;;8.40;1.73;;;13.90;99.90;;;;;;5039967;28;20469;-73
2022/11/08 01:59:44;;;;;;;6.00;1.67;;;14.00;99.90;;;;;;5037381;28;20044;-73
2022/11/08 02:02:11;;;;;;;4.80;1.95;;;14.00;99.90;;;;;;5040887;28;20029;-74
2022/11/08 02:04:41;;;;;;;8.23;1.90;;;13.90;99.90;;;;;;5040700;28;20025;-73
2022/11/08 02:07:09;;;;;;;10.77;1.95;;;13.90;99.90;;;;;;5039258;28;20025;-70
2022/11/08 02:09:37;;;;;;;6.90;1.63;;;13.90;99.90;;;;;;5039177;28;20040;-73
2022/11/08 02:12:06;;;;;;;6.68;1.73;;;13.80;99.90;;;;;;5040437;28;20026;-73
2022/11/08 02:14:36;;;;;;;4.80;1.20;;;13.80;99.90;;;;;;5044279;28;20601;-74
2022/11/08 02:17:01;;;;;;;10.27;2.03;;;13.80;99.90;;;;;;5041249;28;20029;-73
2022/11/08 02:19:46;;;;;;;4.43;1.50;;;13.80;99.90;;;;;;5038775;28;20327;-73
2022/11/08 02:22:27;;;;;;;11.05;1.73;;;13.80;99.90;;;;;;5040933;28;20029;-74
2022/11/08 02:24:54;;;;;;;7.78;1.80;;;13.80;99.90;;;;;;5044925;28;20057;-73
2022/11/08 02:27:20;;;;;;;6.38;2.00;;;13.70;99.90;;;;;;5041678;28;20488;-75
2022/11/08 02:29:46;;;;;;;10.00;1.90;;;13.70;99.90;;;;;;5040267;28;20025;-74
2022/11/08 02:32:11;;;;;;;3.78;1.80;;;13.70;99.90;;;;;;5040656;28;20023;-73
2022/11/08 02:34:46;;;;;;;4.00;1.60;;;13.70;99.90;;;;;;5036577;28;20075;-73
2022/11/08 02:37:15;;;;;;;4.13;1.48;;;13.60;99.90;;;;;;5027038;28;20040;-72
2022/11/08 02:39:45;;;;;;;4.28;1.10;;;13.60;99.90;;;;;;5041147;28;20039;-73
2022/11/08 02:42:18;;;;;;;7.80;1.80;;;13.60;99.90;;;;;;5037625;28;20350;-73
2022/11/08 02:44:44;;;;;;;;;;;13.60;99.90;;;;;;5055146;28;20064;-73
2022/11/08 02:47:09;;;;;;;6.50;1.55;;;13.60;99.90;;;;;;5045911;28;19940;-73
2022/11/08 02:49:35;;;;;;;4.28;1.60;;;13.50;99.90;;;;;;5044984;28;20091;-73
2022/11/08 02:52:01;;;;;;;10.15;1.77;;;13.60;99.90;;;;;;5046870;28;20029;-73
2022/11/08 02:54:27;;;;;;;9.40;1.88;;;13.50;99.90;;;;;;5043497;28;20025;-73
2022/11/08 02:56:52;;;;;;;8.82;1.77;;;13.50;99.90;;;;;;5042965;28;20029;-75
2022/11/08 02:59:18;;;;;;;8.00;1.85;;;13.50;99.90;;;;;;5047327;28;20021;-76
2022/11/08 03:01:44;;;;;;;8.18;1.67;;;13.50;99.90;;;;;;5047625;28;20095;-76
2022/11/08 03:04:10;;;;;;;6.55;1.85;;;13.50;99.90;;;;;;5038828;28;20451;-76
2022/11/08 03:06:36;;;;;;;5.32;1.75;;;13.50;99.90;;;;;;5043356;28;20036;-76
2022/11/08 03:09:02;;;;;;;7.65;1.58;;;13.40;99.90;;;;;;5045119;28;20021;-75
2022/11/08 03:11:27;;;;;;;6.05;1.55;;;13.50;99.90;;;;;;5046605;28;20013;-75
2022/11/08 03:13:53;;;;;;;11.25;1.85;;;13.50;99.90;;;;;;5047000;28;20083;-75
2022/11/08 03:16:21;;;;;;;4.80;1.70;;;13.50;99.90;;;;;;5041010;28;20071;-74
2022/11/08 03:18:46;;;;;;;7.35;1.85;;;13.50;99.90;;;;;;5048183;28;20047;-74
2022/11/08 03:21:12;;;;;;;5.03;1.98;;;13.50;99.90;;;;;;5042339;28;20029;-73
2022/11/08 03:23:40;;;;;;;3.08;1.75;;;13.50;99.90;;;;;;5045722;28;20025;-73
2022/11/08 03:26:06;;;;;;;7.57;1.50;;;13.50;99.90;;;;;;5046133;28;20121;-73
2022/11/08 03:28:33;;;;;;;5.50;1.70;;;13.40;99.90;;;;;;5045365;28;20390;-73
2022/11/08 03:30:59;;;;;;;4.13;1.40;;;13.50;99.90;;;;;;5044710;28;20025;-74
2022/11/08 03:33:25;;;;;;;12.55;2.15;;;13.50;99.90;;;;;;5046152;28;20332;-74
2022/11/08 03:35:51;;;;;;;5.13;1.35;;;13.50;99.90;;;;;;5050301;28;20540;-74
2022/11/08 03:38:22;;;;;;;6.28;1.73;;;13.60;99.90;;;;;;5049105;28;20140;-74
2022/11/08 03:40:50;;;;;;;5.20;1.48;;;13.50;99.90;;;;;;5045284;28;20148;-74
2022/11/08 03:43:16;;;;;;;6.60;1.77;;;13.60;99.90;;;;;;5050922;28;20095;-73
2022/11/08 03:45:44;;;;;;;9.65;1.63;;;13.50;99.90;;;;;;5043596;28;20382;-74
2022/11/08 03:48:09;;;;;;;7.22;1.65;;;13.60;99.90;;;;;;5048993;28;20170;-75
2022/11/08 03:50:37;;;;;;;7.18;1.55;;;13.60;99.90;;;;;;5052722;28;20115;-76
2022/11/08 03:53:03;;;;;;;10.00;1.73;;;13.60;99.90;;;;;;5053252;28;20045;-76
2022/11/08 03:55:34;;;;;;;7.32;2.10;;;13.60;99.90;;;;;;5045348;28;20041;-72
2022/11/08 03:58:00;;;;;;;8.98;3.55;;;13.60;99.90;;;;;;5026124;28;20039;-72
2022/11/08 04:00:28;;;;;;;26.27;6.38;;;13.60;99.90;;;;;;5044089;28;20072;-73
2022/11/08 04:02:58;;;;;;;65.82;18.70;;;13.70;99.90;;;;;;5045088;28;20407;-77
2022/11/08 04:05:30;;;;;;;5.00;2.10;;;13.70;99.90;;;;;;5043062;28;20025;-76
2022/11/08 04:08:00;;;;;;;4.72;1.60;;;13.80;99.90;;;;;;5039274;28;20016;-76
2022/11/08 04:10:25;;;;;;;7.13;1.90;;;13.80;99.90;;;;;;5043422;28;20047;-77
2022/11/08 04:15:35;;;;;;;7.97;2.40;;;13.70;99.90;;;;;;5046125;28;20357;-78
2022/11/08 04:23:33;;;;;;;13.82;3.55;;;13.60;99.90;;;;;;5039143;28;20091;-78
2022/11/08 04:26:01;;;;;;;9.05;3.13;;;13.60;99.90;;;;;;5042576;28;20037;-76
2022/11/08 04:28:32;;;;;;;12.85;3.58;;;13.50;99.90;;;;;;5043559;28;20032;-77
2022/11/08 04:31:02;;;;;;;12.38;2.78;;;13.60;99.90;;;;;;5044479;28;20083;-78
2022/11/08 04:33:28;;;;;;;11.40;2.97;;;13.60;99.90;;;;;;5043969;28;20025;-78
2022/11/08 04:35:54;;;;;;;9.00;3.17;;;13.50;99.90;;;;;;5043039;28;20018;-77
2022/11/08 04:38:20;;;;;;;15.98;3.35;;;13.50;99.90;;;;;;5045524;28;20021;-76
2022/11/08 04:40:46;;;;;;;13.77;3.08;;;13.50;99.90;;;;;;5046584;28;20026;-77
2022/11/08 04:43:12;;;;;;;12.07;3.95;;;13.50;99.90;;;;;;5043979;28;20028;-77
2022/11/08 04:45:38;;;;;;;15.82;3.88;;;13.60;99.90;;;;;;5042571;28;20021;-77
2022/11/08 04:48:04;;;;;;;9.68;3.55;;;13.60;99.90;;;;;;5038999;28;20048;-78
2022/11/08 04:50:30;;;;;;;6.05;2.35;;;13.60;99.90;;;;;;5045686;28;20052;-77
2022/11/08 04:52:58;;;;;;;7.78;3.63;;;13.60;99.90;;;;;;5046296;28;20444;-77
2022/11/08 04:55:24;;;;;;;12.85;3.67;;;13.60;99.90;;;;;;5049531;28;20106;-78
2022/11/08 04:57:50;;;;;;;9.52;3.10;;;13.60;99.90;;;;;;5049831;28;20084;-76
2022/11/08 05:00:18;;;;;;;12.55;3.40;;;13.60;99.90;;;;;;5048824;28;20025;-78
2022/11/08 05:02:43;;;;;;;7.50;3.17;;;13.60;99.90;;;;;;5045209;28;20114;-77
2022/11/08 05:05:11;;;;;;;8.90;2.97;;;13.50;99.90;;;;;;5045411;28;20088;-78
2022/11/08 05:07:37;;;;;;;6.63;2.67;;;13.50;99.90;;;;;;5040292;28;20096;-77
2022/11/08 05:10:03;;;;;;;8.75;3.15;;;13.50;99.90;;;;;;5039494;28;20154;-77
2022/11/08 05:12:31;;;;;;;8.73;2.55;;;13.50;99.90;;;;;;5040964;28;20164;-77
2022/11/08 05:14:57;;;;;;;12.32;2.50;;;13.50;99.90;;;;;;5049975;28;20365;-78
2022/11/08 05:17:22;;;;;;;9.57;2.13;;;13.50;99.90;;;;;;5045491;28;20024;-78
2022/11/08 05:25:16;;;;;;;7.13;2.67;;;13.50;99.90;;;;;;5044682;28;20036;-76
2022/11/08 05:27:42;;;;;;;8.07;2.67;;;13.50;99.90;;;;;;5045387;28;20029;-76
2022/11/08 05:30:08;;;;;;;6.03;2.30;;;13.40;99.90;;;;;;5042152;28;20055;-77
2022/11/08 05:32:33;;;;;;;6.53;2.40;;;13.50;99.90;;;;;;5044372;28;20025;-77
2022/11/08 05:34:59;;;;;;;10.25;2.85;;;13.50;99.90;;;;;;5046865;28;20029;-77
2022/11/08 05:37:27;;;;;;;8.73;2.63;;;13.40;99.90;;;;;;5039018;28;20357;-77
2022/11/08 05:39:55;;;;;;;9.38;2.38;;;13.40;99.90;;;;;;5048855;28;20095;-75
2022/11/08 05:42:20;;;;;;;10.27;2.55;;;13.40;99.90;;;;;;5047753;28;20052;-75
2022/11/08 05:44:46;;;;;;;11.02;2.70;;;13.50;99.90;;;;;;5038638;28;20065;-75
2022/11/08 05:47:11;;;;;;;8.13;2.78;;;13.50;99.90;;;;;;5042084;28;20024;-75
2022/11/08 05:49:39;;;;;;;9.23;2.50;;;13.50;99.90;;;;;;5040216;28;20021;-76
2022/11/08 05:52:05;;;;;;;6.85;2.60;;;13.50;99.90;;;;;;5041168;28;20021;-75
2022/11/08 05:54:31;;;;;;;6.65;2.10;;;13.50;99.90;;;;;;5039799;28;20048;-75
2022/11/08 05:56:56;;;;;;;9.85;2.45;;;13.50;99.90;;;;;;5047749;28;20074;-75
2022/11/08 05:59:22;;;;;;;5.85;2.58;;;13.50;99.90;;;;;;5046558;28;20021;-76
2022/11/08 06:01:53;;;;;;;8.07;2.80;;;13.50;99.90;;;;;;5038310;28;20032;-75
2022/11/08 06:04:20;;;;;;;10.95;2.72;;;13.50;99.90;;;;;;5047012;28;20029;-75
2022/11/08 06:06:50;;;;;;;9.43;2.42;;;13.50;99.90;;;;;;5041586;28;20143;-76
2022/11/08 06:09:18;;;;;;;5.30;2.25;;;13.50;99.90;;;;;;5038108;28;20017;-75
2022/11/08 06:11:47;;;;;;;4.43;2.10;;;13.60;99.90;;;;;;5041445;28;20063;-75
2022/11/08 06:14:12;;;;;;;4.80;2.60;;;13.60;99.90;;;;;;5050105;28;20025;-76
2022/11/08 06:16:38;;;;;;;5.47;1.98;;;13.60;99.90;;;;;;5055123;28;20024;-76
2022/11/08 06:19:08;;;;;;;7.13;1.83;;;13.60;99.90;;;;;;5044313;28;20021;-77
2022/11/08 06:21:35;;;;;;;5.82;2.15;;;13.60;99.90;;;;;;5039961;28;20024;-77
2022/11/08 06:24:00;;;;;;;7.75;2.00;;;13.70;99.90;;;;;;5037948;28;20093;-77
2022/11/08 06:26:26;;;;;;;13.85;3.08;;;13.70;99.90;;;;;;5043183;28;20061;-78
2022/11/08 06:28:52;;;;;;;4.53;1.95;;;13.70;99.90;;;;;;5038704;28;20043;-78
2022/11/08 06:31:19;;;;;;;4.32;1.98;;;13.80;99.90;;;;;;5043643;28;20021;-77
2022/11/08 06:33:45;;;;;;;8.60;2.42;;;13.80;99.90;;;;;;5044428;28;20028;-76
2022/11/08 06:36:11;;;;;;;5.22;2.13;;;13.80;99.90;;;;;;5049935;28;20025;-78
2022/11/08 06:38:39;;;;;;;5.70;2.00;;;13.80;99.90;;;;;;5043516;28;20040;-74
2022/11/08 06:41:04;;;;;;;5.82;2.42;;;13.90;99.90;;;;;;5047651;28;20037;-77
2022/11/08 06:43:30;;;;;;;3.42;2.00;;;13.80;99.90;;;;;;5056089;28;20021;-75
2022/11/08 06:46:01;;;;;;;9.73;2.42;;;13.90;99.90;;;;;;5043238;28;20738;-75
2022/11/08 06:48:27;;;;;;;10.77;2.97;;;13.90;99.90;;;;;;5044779;28;20036;-75
2022/11/08 06:50:53;;;;;;;10.23;2.40;;;13.90;99.90;;;;;;5040871;28;20021;-76
2022/11/08 06:53:20;;;;;;;9.05;3.03;;;13.90;99.90;;;;;;5042638;28;20017;-77
2022/11/08 06:55:48;;;;;;;7.15;2.50;;;13.90;99.90;;;;;;5043460;28;20112;-77
2022/11/08 06:58:13;;;;;;;3.45;2.08;;;14.00;99.90;;;;;;5046524;28;20093;-75
2022/11/08 07:00:39;;;;;;;7.45;1.95;;;13.90;99.90;;;;;;5039197;28;20108;-74
2022/11/08 07:03:05;;;;;;;5.50;2.08;;;14.00;99.90;;;;;;5044415;28;20037;-77
2022/11/08 07:05:34;;;;;;;8.82;2.03;;;14.00;99.90;;;;;;5040024;28;20434;-78
2022/11/08 07:08:01;;;;;;;6.03;2.00;;;14.10;99.90;;;;;;5049124;28;20028;-75
2022/11/08 07:10:29;;;;;;;4.93;1.75;;;14.10;99.90;;;;;;5041039;28;20029;-77
2022/11/08 07:12:58;;;;;;;7.20;1.67;;;14.20;99.90;;;;;;5044224;28;20349;-76
2022/11/08 07:15:24;;;;;;;4.43;1.85;;;14.20;99.90;;;;;;5038483;28;20033;-78
2022/11/08 07:17:50;;;;;;;2.83;1.58;;;14.20;99.90;;;;;;5042170;28;20083;-77
2022/11/08 07:20:15;;;;;;;8.60;1.63;;;14.30;99.90;;;;;;5040500;28;20029;-77
2022/11/08 07:22:46;;;;;;;4.78;1.90;;;14.30;99.90;;;;;;5045707;28;20037;-73
2022/11/08 07:25:11;;;;;;;5.07;1.73;;;14.30;99.90;;;;;;5048072;28;20040;-73
2022/11/08 07:27:37;;;;;;;2.58;1.80;;;14.40;99.90;;;;;;5044205;28;20034;-78
2022/11/08 07:30:05;;;;;;;5.60;1.80;;;14.40;99.90;;;;;;5039528;28;20029;-78
2022/11/08 07:32:30;;;;;;;6.57;1.63;;;14.40;99.90;;;;;;5044019;28;20037;-76
2022/11/08 07:34:56;;;;;;;5.70;1.75;;;14.40;99.90;;;;;;5043727;28;20021;-77
2022/11/08 07:37:24;;;;;;;5.72;2.00;;;14.40;99.90;;;;;;5049818;28;20034;-77
2022/11/08 07:39:50;;;;;;;4.65;1.88;;;14.40;99.90;;;;;;5042312;28;20520;-77
2022/11/08 07:42:15;;;;;;;7.53;2.08;;;14.50;99.90;;;;;;5071883;22;20045;-75
2022/11/08 07:44:41;;;;;;;11.10;2.70;;;14.40;99.90;;;;;;5031985;28;20560;-78
2022/11/08 07:47:06;;;;;;;8.68;3.05;;;14.50;99.90;;;;;;5032039;28;20022;-74
2022/11/08 07:49:34;;;;;;;9.70;3.30;;;14.50;99.90;;;;;;5032910;28;20033;-77
2022/11/08 07:52:02;;;;;;;8.57;3.13;;;14.60;99.90;;;;;;5032949;28;20033;-77
2022/11/08 07:54:30;;;;;;;9.30;3.78;;;14.60;99.90;;;;;;5033169;28;20090;-74
2022/11/08 07:56:55;;;;;;;12.30;3.13;;;14.60;99.90;;;;;;5032760;28;20030;-77
2022/11/08 07:59:21;;;;;;;7.85;2.53;;;14.60;99.90;;;;;;5033596;28;20044;-77
2022/11/08 08:01:46;;;;;;;10.65;2.55;;;14.70;99.90;;;;;;5032362;28;20029;-76
2022/11/08 08:04:12;;;;;;;11.27;2.30;;;14.70;99.90;;;;;;5032497;28;20033;-74
2022/11/08 08:06:38;;;;;;;5.03;2.40;;;14.70;99.90;;;;;;5033261;28;20052;-74
2022/11/08 08:09:03;;;;;;;5.60;2.30;;;14.80;99.90;;;;;;5033331;28;20339;-76
2022/11/08 08:11:31;;;;;;;7.38;2.20;;;14.80;99.90;;;;;;5032787;28;20048;-77
2022/11/08 08:13:57;;;;;;;4.93;1.90;;;14.80;99.90;;;;;;5030833;28;20517;-73
2022/11/08 08:16:23;;;;;;;5.63;2.42;;;14.80;99.90;;;;;;5032193;28;20083;-75
2022/11/08 08:18:51;;;;;;;6.47;2.03;;;14.80;99.90;;;;;;5032696;28;20033;-74
2022/11/08 08:21:19;;;;;;;3.92;2.00;;;14.80;99.90;;;;;;5031249;28;20026;-76
2022/11/08 08:23:45;;;;;;;3.38;1.55;;;14.80;99.90;;;;;;5030545;28;20036;-75
2022/11/08 08:26:11;;;;;;;2.55;1.90;;;14.80;99.90;;;;;;5030376;28;20018;-76
2022/11/08 08:28:36;;;;;;;5.00;2.00;;;14.90;99.90;;;;;;5031610;28;20721;-76
2022/11/08 08:31:05;;;;;;;7.70;1.85;;;14.90;99.90;;;;;;5030134;28;20033;-75
2022/11/08 08:33:33;;;;;;;6.78;2.22;;;15.00;99.90;;;;;;5030173;28;20053;-75
2022/11/08 08:36:02;;;;;;;3.80;1.77;;;14.90;99.90;;;;;;5038910;28;20029;-73
2022/11/08 08:38:31;;;;;;;5.22;1.70;;;14.90;99.90;;;;;;5038011;28;20036;-76
2022/11/08 08:40:57;;;;;;;7.28;2.22;;;15.00;99.90;;;;;;5032252;28;20105;-75
2022/11/08 08:43:26;;;;;;;9.48;2.17;;;15.10;99.90;;;;;;5030817;28;20029;-76
2022/11/08 08:45:53;;;;;;;5.30;2.15;;;15.20;99.90;;;;;;5032743;28;20033;-74
2022/11/08 08:48:19;;;;;;;3.35;2.00;;;15.20;99.90;;;;;;5032686;28;20350;-73
2022/11/08 08:50:45;;;;;;;7.45;2.65;;;15.20;99.90;;;;;;5031951;28;20021;-75
2022/11/08 08:53:11;;;;;;;8.80;2.72;;;15.30;99.90;;;;;;5031038;28;20064;-77
2022/11/08 08:55:38;;;;;;;5.95;1.48;;;15.10;99.90;;;;;;5031171;28;20024;-74
2022/11/08 08:58:04;;;;;;;4.93;2.55;;;15.10;99.90;;;;;;5029590;28;20037;-74
2022/11/08 09:00:31;;;;;;;9.93;2.53;;;15.20;99.90;;;;;;5030292;28;20033;-75
2022/11/08 09:03:11;;;;;;;5.40;2.25;;;15.20;99.90;;;;;;5031238;28;20021;-74
2022/11/08 09:05:40;;;;;;;3.60;2.10;;;15.30;99.90;;;;;;5032351;28;20037;-72
2022/11/08 09:08:06;;;;;;;4.47;2.00;;;15.20;99.90;;;;;;5029136;28;20448;-72
2022/11/08 09:10:34;;;;;;;3.53;2.13;;;15.20;99.90;;;;;;5029801;28;20029;-74
2022/11/08 09:13:03;;;;;;;3.78;1.80;;;15.30;99.90;;;;;;5031210;28;20028;-73
2022/11/08 09:15:32;;;;;;;5.28;2.00;;;15.40;99.90;;;;;;5030816;28;20124;-72
2022/11/08 09:17:58;;;;;;;3.88;1.60;;;15.40;99.90;;;;;;5051159;28;20029;-73
2022/11/08 09:20:26;;;;;;;6.43;2.03;;;15.40;99.90;;;;;;5029853;28;20031;-73
2022/11/08 09:22:56;;;;;;;3.85;1.65;;;15.50;99.90;;;;;;5030583;28;20128;-73
2022/11/08 09:25:22;;;;;;;3.50;1.30;;;15.40;99.90;;;;;;5029393;28;20052;-77
2022/11/08 09:27:53;;;;;;;8.30;1.90;;;15.50;99.90;;;;;;5029265;28;20025;-72
2022/11/08 09:30:21;;;;;;;3.05;1.70;;;15.60;99.90;;;;;;5028510;28;20044;-73
2022/11/08 09:32:46;;;;;;;4.78;1.73;;;15.60;99.90;;;;;;5031305;28;20102;-75
2022/11/08 09:35:12;;;;;;;4.35;1.77;;;15.70;99.90;;;;;;5031524;28;20133;-73
2022/11/08 09:37:38;;;;;;;6.93;1.60;;;15.70;99.90;;;;;;5030435;28;20350;-73
2022/11/08 09:40:04;;;;;;;3.03;1.83;;;15.70;99.90;;;;;;5031125;28;20025;-74
2022/11/08 09:42:51;;;;;;;2.90;1.65;;;15.60;99.90;;;;;;5028844;28;20041;-76
2022/11/08 09:45:58;;;;;;;6.55;1.38;;;15.60;99.90;;;;;;5029846;28;20127;-74
2022/11/08 09:48:27;;;;;;;5.18;1.60;;;15.60;99.90;;;;;;5009133;28;20029;-73
2022/11/08 09:50:54;;;;;;;4.28;1.65;;;15.70;99.90;;;;;;5029357;28;20265;-72
2022/11/08 09:53:35;;;;;;;5.28;2.10;;;15.70;99.90;;;;;;5029296;28;20026;-73
2022/11/08 09:56:15;;;;;;;1.80;1.40;;;15.90;99.90;;;;;;5030243;28;20029;-73
2022/11/08 09:58:53;;;;;;;5.35;1.70;;;15.70;99.90;;;;;;5023944;28;20124;-73
2022/11/08 10:01:20;;;;;;;7.40;1.60;;;15.90;99.90;;;;;;5027270;28;20021;-74
2022/11/08 10:03:54;;;;;;;5.90;1.90;;;15.80;99.90;;;;;;5024664;28;20037;-73
2022/11/08 10:06:38;;;;;;;8.57;1.75;;;16.00;99.90;;;;;;5027710;28;20022;-70
2022/11/08 10:09:10;;;;;;;3.90;1.70;;;16.20;99.90;;;;;;5029704;28;20025;-76
2022/11/08 10:11:41;;;;;;;3.38;2.00;;;16.40;99.90;;;;;;5044576;28;20026;-76
2022/11/08 10:14:27;;;;;;;5.00;1.50;;;16.30;99.90;;;;;;5028988;28;20502;-77
2022/11/08 10:16:55;;;;;;;2.15;1.40;;;16.20;99.90;;;;;;5007201;28;20045;-76
2022/11/08 10:19:33;;;;;;;4.82;1.40;;;16.20;99.90;;;;;;5030805;28;20043;-75
2022/11/08 10:22:09;;;;;;;5.57;1.50;;;16.30;99.90;;;;;;5030012;28;20025;-73
2022/11/08 10:24:51;;;;;;;1.98;1.40;;;16.30;99.90;;;;;;5029834;28;20533;-72
2022/11/08 10:27:30;;;;;;;5.78;1.75;;;16.40;99.90;;;;;;5029046;28;20022;-77
2022/11/08 10:30:01;;;;;;;4.85;1.42;;;16.40;99.90;;;;;;5031027;28;20100;-77
2022/11/08 10:32:29;;;;;;;15.77;5.85;;;16.50;99.50;;;;;;5029596;28;20022;-72
2022/11/08 10:35:03;;;;;;;4.50;1.60;;;16.30;99.90;;;;;;5026521;28;20029;-74
2022/11/08 10:37:31;;;;;;;6.53;2.00;;;16.40;99.90;;;;;;5030018;28;20379;-72
2022/11/08 10:40:04;;;;;;;5.30;1.98;;;16.50;99.80;;;;;;5028920;28;20112;-75
2022/11/08 10:42:44;;;;;;;5.72;1.80;;;16.50;99.70;;;;;;5027178;28;20101;-74
2022/11/08 10:45:11;;;;;;;4.05;1.20;;;16.60;99.60;;;;;;5042308;28;20923;-73
2022/11/08 10:47:39;;;;;;;5.32;1.95;;;16.60;99.40;;;;;;5029489;28;20122;-74
2022/11/08 10:50:17;;;;;;;5.72;1.63;;;16.50;99.60;;;;;;5030667;28;20025;-77
2022/11/08 10:52:59;;;;;;;3.85;1.30;;;16.60;99.70;;;;;;5030310;28;20037;-72
2022/11/08 10:55:29;;;;;;;7.13;1.50;;;16.60;99.80;;;;;;5025322;28;20090;-73
2022/11/08 10:57:55;;;;;;;4.38;1.27;;;16.70;98.90;;;;;;5029727;28;20173;-74
2022/11/08 11:00:21;;;;;;;3.63;1.77;;;16.50;99.10;;;;;;5028902;28;20136;-76
2022/11/08 11:02:54;;;;;;;7.90;1.60;;;16.70;99.00;;;;;;5030596;28;20033;-72
2022/11/08 11:05:23;;;;;;;3.90;1.63;;;16.90;99.00;;;;;;5036843;28;20120;-73
2022/11/08 11:07:52;;;;;;;2.92;1.60;;;17.10;98.50;;;;;;5028129;28;20040;-75
2022/11/08 11:10:41;;;;;;;4.70;1.83;;;17.20;97.70;;;;;;5032778;28;20028;-72
2022/11/08 11:13:13;;;;;;;3.83;1.70;;;17.30;97.30;;;;;;5034819;28;20018;-75
2022/11/08 11:15:57;;;;;;;5.43;1.90;;;17.40;97.10;;;;;;5033704;28;20863;-74
2022/11/08 11:18:45;;;;;;;3.33;1.58;;;17.50;97.00;;;;;;5052105;28;20038;-74
2022/11/08 11:21:19;;;;;;;5.30;1.85;;;17.30;96.80;;;;;;5041356;28;20037;-74
2022/11/08 11:23:54;;;;;;;8.27;1.95;;;17.30;97.10;;;;;;5033885;28;20056;-78
2022/11/08 11:26:28;;;;;;;6.28;1.70;;;17.60;97.10;;;;;;5021997;28;20117;-73
2022/11/08 11:29:02;;;;;;;4.50;1.63;;;17.90;96.50;;;;;;5033867;28;20034;-73
2022/11/08 11:31:34;;;;;;;3.83;1.45;;;18.00;96.70;;;;;;5032303;28;20062;-74
2022/11/08 11:34:17;;;;;;;5.30;2.15;;;18.10;95.90;;;;;;5033365;28;20026;-73
2022/11/08 11:36:54;;;;;;;6.43;2.03;;;18.10;95.90;;;;;;5033057;28;20117;-76
2022/11/08 11:40:11;;;;;;;5.30;1.70;;;17.90;96.00;;;;;;5031988;28;20049;-74
2022/11/08 11:42:42;;;;;;;2.25;1.38;;;17.40;96.10;;;;;;4995459;28;20147;-73
2022/11/08 11:45:20;;;;;;;6.35;2.03;;;17.20;97.00;;;;;;5031747;28;20030;-73
2022/11/08 11:47:51;;;;;;;2.83;1.70;;;17.20;96.90;;;;;;5032576;28;20090;-72
2022/11/08 11:50:36;;;;;;;7.25;1.85;;;17.30;97.40;;;;;;5033162;28;20128;-74
2022/11/08 11:53:24;;;;;;;5.90;1.83;;;17.30;97.50;;;;;;5033346;28;20383;-75
2022/11/08 11:56:22;;;;;;;3.03;1.70;;;17.40;97.60;;;;;;5048877;28;20121;-75
2022/11/08 11:58:51;;;;;;;1.90;1.40;;;17.30;97.30;;;;;;5028836;28;20052;-73
2022/11/08 12:01:47;;;;;;;4.85;2.13;;;17.40;97.90;;;;;;5033092;28;20079;-73
2022/11/08 12:04:19;;;;;;;3.65;1.90;;;17.40;97.50;;;;;;5032920;28;20021;-76
2022/11/08 12:07:04;;;;;;;3.72;1.73;;;17.60;97.80;;;;;;5026381;28;20021;-74
2022/11/08 12:09:52;;;;;;;3.40;1.73;;;17.80;97.40;;;;;;5012319;28;20025;-73
2022/11/08 12:12:20;;;;;;;4.60;2.03;;;17.90;97.40;;;;;;5031365;28;20017;-74
2022/11/08 12:14:54;;;;;;;7.25;1.85;;;18.00;97.10;;;;;;5028011;28;20410;-74
2022/11/08 12:17:22;;;;;;;7.82;2.03;;;18.20;96.50;;;;;;5030951;28;20033;-76
2022/11/08 12:20:09;;;;;;;5.82;2.03;;;18.10;95.70;;;;;;5029621;28;20052;-73
2022/11/08 12:22:53;;;;;;;7.50;2.00;;;18.30;95.00;;;;;;5032238;28;20033;-74
2022/11/08 12:25:25;;;;;;;6.65;2.00;;;18.50;95.20;;;;;;5032421;28;20029;-72
2022/11/08 12:27:54;;;;;;;4.60;2.00;;;18.60;94.60;;;;;;5032509;28;20025;-74
2022/11/08 12:30:28;;;;;;;3.00;1.83;;;18.80;94.50;;;;;;5030377;28;20017;-73
2022/11/08 12:33:15;;;;;;;6.05;2.22;;;18.80;94.30;;;;;;5013888;28;20067;-74
2022/11/08 12:36:03;;;;;;;6.57;2.17;;;19.10;94.10;;;;;;5030531;28;20053;-74
2022/11/08 12:39:24;;;;;;;24.55;9.38;;;19.10;94.10;;;;;;5030752;28;20323;-74
2022/11/08 12:42:09;;;;;;;5.28;1.98;;;19.30;93.80;;;;;;5005173;28;20123;-76
2022/11/08 12:45:05;;;;;;;2.67;1.90;;;19.50;93.10;;;;;;5009344;28;20034;-77
2022/11/08 12:47:58;;;;;;;3.83;1.80;;;19.40;92.80;;;;;;5026924;28;20064;-77
2022/11/08 12:50:28;;;;;;;4.10;2.13;;;19.00;92.70;;;;;;5031567;28;20030;-78
2022/11/08 12:53:16;;;;;;;5.32;1.77;;;18.60;93.30;;;;;;5027670;28;20030;-78
2022/11/08 12:55:48;;;;;;;3.60;1.70;;;18.60;93.80;;;;;;5031504;28;20021;-76
2022/11/08 12:58:25;;;;;;;2.80;1.70;;;18.60;94.00;;;;;;5029660;28;20040;-76
2022/11/08 13:00:56;;;;;;;5.03;1.98;;;18.60;93.90;;;;;;5029361;28;20017;-78
2022/11/08 13:03:53;;;;;;;6.78;1.73;;;18.90;93.70;;;;;;5028499;28;20526;-73
2022/11/08 13:06:41;;;;;;;3.75;1.70;;;18.80;93.50;;;;;;5029313;28;20057;-74
2022/11/08 13:09:18;;;;;;;101.63;38.05;;;19.30;93.20;;;;;;5030910;28;20017;-72
2022/11/08 13:12:00;;;;;;;5.22;2.15;;;19.90;92.30;;;;;;5028126;28;20029;-71
2022/11/08 13:14:27;;;;;;;318.08;41.72;;;19.70;91.80;;;;;;5029214;28;20454;-72
2022/11/08 13:17:08;;;;;;;103.95;11.13;;;19.20;92.70;;;;;;5031401;28;20056;-73
2022/11/08 13:19:45;;;;;;;7.30;2.78;;;18.80;93.50;;;;;;5031442;28;20025;-71
2022/11/08 13:22:32;;;;;;;10.65;2.20;;;18.30;93.90;;;;;;5032229;28;20036;-72
2022/11/08 13:25:07;;;;;;;11.75;2.35;;;18.20;94.70;;;;;;5031668;28;20454;-72